createdAt,value
2019-03-24T00:01:41.138Z,20.10
2019-03-24T00:04:05.568Z,22.60
2019-03-24T00:06:36.360Z,17.30
2019-03-24T00:09:08.043Z,17.60
2019-03-24T00:11:38.636Z,26.60
2019-03-24T00:14:09.521Z,17.40
2019-03-24T00:16:40.348Z,21.70
2019-03-24T00:19:11.228Z,20.23
2019-03-24T00:21:41.908Z,19.20
2019-03-24T00:24:12.693Z,18.80
2019-03-24T00:26:43.788Z,22.10
2019-03-24T00:29:14.404Z,21.50
2019-03-24T00:31:45.225Z,17.10
2019-03-24T00:34:15.984Z,21.13
2019-03-24T00:36:46.561Z,21.73
2019-03-24T00:39:17.385Z,20.50
2019-03-24T00:41:48.008Z,17.80
2019-03-24T00:44:18.631Z,22.63
2019-03-24T00:46:49.534Z,17.77
2019-03-24T00:49:20.373Z,22.70
2019-03-24T00:51:51.016Z,19.73
2019-03-24T00:54:21.811Z,19.87
2019-03-24T00:56:52.709Z,22.10
2019-03-24T00:59:23.813Z,26.43
2019-03-24T01:01:54.428Z,17.50
2019-03-24T01:04:25.675Z,19.40
2019-03-24T01:06:56.525Z,19.60
2019-03-24T01:09:27.092Z,25.47
2019-03-24T01:11:57.701Z,20.40
2019-03-24T01:14:28.271Z,16.43
2019-03-24T01:16:59.360Z,18.47
2019-03-24T01:19:29.976Z,15.80
2019-03-24T01:22:00.836Z,19.20
2019-03-24T01:24:31.504Z,19.57
2019-03-24T01:27:02.331Z,19.03
2019-03-24T01:29:33.228Z,17.33
2019-03-24T01:32:04.092Z,21.50
2019-03-24T01:34:34.978Z,24.23
2019-03-24T01:37:05.536Z,23.63
2019-03-24T01:39:36.592Z,25.90
2019-03-24T01:42:08.221Z,18.50
2019-03-24T01:44:39.112Z,24.37
2019-03-24T01:47:09.896Z,18.13
2019-03-24T01:49:41.842Z,29.27
2019-03-24T01:52:13.324Z,20.43
2019-03-24T01:54:44.115Z,22.90
2019-03-24T01:57:14.747Z,29.57
2019-03-24T01:59:45.322Z,25.37
2019-03-24T02:02:16.867Z,26.93
2019-03-24T02:04:47.540Z,15.30
2019-03-24T02:07:18.131Z,26.10
2019-03-24T02:09:48.711Z,23.00
2019-03-24T02:12:19.633Z,22.93
2019-03-24T02:14:50.467Z,24.50
2019-03-24T02:17:21.333Z,21.70
2019-03-24T02:19:51.956Z,23.37
2019-03-24T02:22:22.973Z,20.07
2019-03-24T02:24:53.828Z,18.93
2019-03-24T02:27:24.404Z,20.13
2019-03-24T02:29:55.260Z,14.40
2019-03-24T02:32:25.825Z,21.80
2019-03-24T02:34:56.973Z,18.60
2019-03-24T02:37:28.046Z,19.67
2019-03-24T02:39:58.939Z,15.53
2019-03-24T02:42:29.815Z,15.97
2019-03-24T02:45:00.479Z,20.40
2019-03-24T02:47:31.082Z,21.00
2019-03-24T02:50:01.652Z,13.20
2019-03-24T02:52:32.344Z,11.53
2019-03-24T02:55:02.912Z,16.13
2019-03-24T02:57:33.534Z,19.90
2019-03-24T03:00:04.874Z,24.97
2019-03-24T03:02:37.492Z,23.33
2019-03-24T03:05:09.170Z,22.70
2019-03-24T03:07:39.925Z,22.43
2019-03-24T03:10:10.944Z,21.13
2019-03-24T03:12:41.788Z,22.07
2019-03-24T03:15:12.761Z,22.13
2019-03-24T03:17:43.451Z,17.20
2019-03-24T03:20:14.268Z,17.80
2019-03-24T03:22:45.128Z,22.90
2019-03-24T03:25:15.848Z,20.23
2019-03-24T03:27:46.701Z,25.10
2019-03-24T03:30:17.451Z,20.20
2019-03-24T03:32:48.562Z,16.10
2019-03-24T03:35:19.426Z,25.10
2019-03-24T03:37:50.132Z,19.40
2019-03-24T03:40:20.821Z,32.00
2019-03-24T03:42:51.445Z,16.17
2019-03-24T03:45:28.894Z,24.23
2019-03-24T03:47:59.555Z,20.50
2019-03-24T03:50:30.365Z,16.30
2019-03-24T03:53:01.035Z,19.03
2019-03-24T03:55:31.665Z,19.40
2019-03-24T03:58:03.326Z,15.53
2019-03-24T04:00:35.385Z,18.50
2019-03-24T04:03:07.463Z,18.40
2019-03-24T04:05:38.329Z,14.17
2019-03-24T04:08:09.093Z,24.20
2019-03-24T04:10:39.729Z,16.40
2019-03-24T04:13:10.825Z,17.30
2019-03-24T04:15:41.457Z,21.23
2019-03-24T04:18:12.061Z,23.90
2019-03-24T04:20:42.702Z,17.97
2019-03-24T04:23:13.620Z,19.67
2019-03-24T04:25:44.436Z,14.63
2019-03-24T04:28:15.045Z,16.87
2019-03-24T04:30:45.601Z,19.77
2019-03-24T04:33:16.710Z,22.33
2019-03-24T04:35:47.436Z,18.47
2019-03-24T04:38:18.278Z,13.50
2019-03-24T04:40:49.166Z,16.13
2019-03-24T04:43:20.044Z,25.13
2019-03-24T04:45:51.144Z,17.20
2019-03-24T04:48:21.989Z,14.40
2019-03-24T04:50:52.656Z,21.17
2019-03-24T04:53:23.244Z,21.43
2019-03-24T04:55:54.108Z,17.57
2019-03-24T04:58:24.699Z,12.93
2019-03-24T05:00:55.561Z,21.43
2019-03-24T05:03:26.192Z,16.93
2019-03-24T05:05:57.305Z,9.80
2019-03-24T05:08:29.056Z,14.10
2019-03-24T05:10:59.851Z,20.67
2019-03-24T05:13:30.475Z,11.33
2019-03-24T05:16:01.323Z,15.67
2019-03-24T05:18:32.180Z,18.80
2019-03-24T05:21:02.751Z,13.97
2019-03-24T05:23:33.795Z,13.53
2019-03-24T05:26:04.516Z,17.20
2019-03-24T05:28:35.613Z,13.23
2019-03-24T05:31:06.184Z,13.43
2019-03-24T05:33:36.804Z,15.20
2019-03-24T05:36:07.612Z,16.13
2019-03-24T05:38:38.244Z,14.60
2019-03-24T05:41:09.110Z,13.75
2019-03-24T05:43:39.788Z,12.60
2019-03-24T05:46:10.653Z,18.10
2019-03-24T05:48:41.241Z,12.58
2019-03-24T05:51:11.894Z,17.67
2019-03-24T05:53:42.530Z,11.93
2019-03-24T05:56:13.356Z,16.80
2019-03-24T05:58:44.420Z,16.47
2019-03-24T06:01:15.011Z,18.83
2019-03-24T06:03:46.524Z,14.40
2019-03-24T06:06:17.200Z,9.57
2019-03-24T06:08:47.816Z,16.60
2019-03-24T06:11:18.620Z,14.83
2019-03-24T06:13:49.500Z,15.63
2019-03-24T06:16:20.067Z,17.07
2019-03-24T06:18:50.929Z,18.80
2019-03-24T06:21:21.496Z,13.40
2019-03-24T06:23:52.404Z,22.63
2019-03-24T06:26:22.992Z,12.97
2019-03-24T06:28:53.910Z,14.00
2019-03-24T06:31:24.492Z,13.30
2019-03-24T06:33:55.602Z,12.43
2019-03-24T06:36:26.400Z,14.83
2019-03-24T06:38:57.241Z,7.43
2019-03-24T06:41:28.320Z,11.03
2019-03-24T06:43:59.211Z,11.87
2019-03-24T06:46:30.016Z,8.07
2019-03-24T06:49:00.600Z,11.97
2019-03-24T06:51:31.216Z,16.40
2019-03-24T06:54:01.876Z,8.33
2019-03-24T06:56:32.712Z,14.10
2019-03-24T06:59:03.558Z,11.63
2019-03-24T07:01:34.187Z,10.60
2019-03-24T07:04:05.065Z,20.07
2019-03-24T07:06:35.973Z,9.63
2019-03-24T07:09:07.379Z,12.40
2019-03-24T07:11:37.946Z,8.50
2019-03-24T07:14:08.788Z,9.07
2019-03-24T07:16:39.592Z,7.33
2019-03-24T07:19:10.204Z,10.23
2019-03-24T07:21:40.771Z,13.73
2019-03-24T07:24:11.380Z,13.37
2019-03-24T07:26:41.996Z,8.70
2019-03-24T07:29:12.560Z,11.77
2019-03-24T07:31:43.256Z,6.57
2019-03-24T07:34:14.069Z,10.53
2019-03-24T07:36:45.383Z,16.23
2019-03-24T07:39:16.182Z,7.97
2019-03-24T07:41:47.001Z,15.13
2019-03-24T07:44:17.645Z,6.20
2019-03-24T07:46:48.210Z,13.73
2019-03-24T07:49:19.083Z,14.10
2019-03-24T07:51:49.712Z,14.13
2019-03-24T07:54:20.644Z,8.13
2019-03-24T07:56:51.271Z,10.70
2019-03-24T07:59:22.261Z,20.03
2019-03-24T08:01:53.233Z,15.10
2019-03-24T08:04:24.246Z,14.93
2019-03-24T08:06:55.380Z,15.90
2019-03-24T08:09:26.280Z,9.70
2019-03-24T08:11:59.179Z,11.60
2019-03-24T08:14:31.907Z,8.03
2019-03-24T08:17:02.861Z,10.30
2019-03-24T08:19:33.786Z,7.70
2019-03-24T08:22:04.882Z,5.40
2019-03-24T08:24:35.531Z,15.43
2019-03-24T08:27:06.677Z,10.13
2019-03-24T08:29:37.396Z,12.97
2019-03-24T08:32:08.056Z,10.87
2019-03-24T08:34:39.157Z,15.00
2019-03-24T08:37:10.039Z,10.00
2019-03-24T08:39:40.736Z,8.47
2019-03-24T08:42:11.312Z,7.17
2019-03-24T08:44:42.839Z,8.17
2019-03-24T08:47:13.732Z,10.90
2019-03-24T08:49:45.316Z,13.53
2019-03-24T08:52:16.361Z,7.60
2019-03-24T08:54:47.233Z,10.00
2019-03-24T08:57:18.036Z,6.30
2019-03-24T08:59:48.663Z,11.00
2019-03-24T09:02:19.228Z,9.47
2019-03-24T09:04:49.970Z,7.70
2019-03-24T09:07:21.664Z,10.33
2019-03-24T09:09:53.089Z,11.27
2019-03-24T09:12:24.245Z,6.43
2019-03-24T09:14:55.300Z,11.20
2019-03-24T09:17:27.502Z,11.93
2019-03-24T09:19:58.828Z,10.20
2019-03-24T09:22:29.793Z,15.20
2019-03-24T09:25:01.053Z,8.50
2019-03-24T09:27:31.977Z,13.00
2019-03-24T09:30:02.553Z,12.80
2019-03-24T09:32:33.488Z,7.80
2019-03-24T09:35:04.929Z,7.50
2019-03-24T09:37:35.591Z,9.23
2019-03-24T09:40:07.424Z,6.60
2019-03-24T09:42:38.091Z,17.20
2019-03-24T09:45:08.886Z,14.97
2019-03-24T09:47:39.719Z,8.00
2019-03-24T09:50:10.412Z,11.30
2019-03-24T09:52:41.543Z,11.30
2019-03-24T09:55:12.460Z,5.37
2019-03-24T09:57:43.598Z,8.23
2019-03-24T10:00:14.364Z,7.23
2019-03-24T10:02:45.735Z,9.17
2019-03-24T10:05:16.376Z,7.67
2019-03-24T10:07:47.601Z,5.23
2019-03-24T10:10:18.344Z,4.47
2019-03-24T10:12:49.016Z,7.60
2019-03-24T10:15:19.671Z,6.60
2019-03-24T10:17:50.575Z,6.40
2019-03-24T10:20:21.436Z,7.10
2019-03-24T10:22:52.574Z,16.67
2019-03-24T10:25:23.372Z,4.83
2019-03-24T10:27:54.405Z,10.53
2019-03-24T10:30:26.028Z,10.17
2019-03-24T10:32:56.710Z,10.03
2019-03-24T10:35:27.464Z,13.27
2019-03-24T10:37:58.328Z,6.07
2019-03-24T10:40:29.286Z,6.47
2019-03-24T10:43:00.208Z,10.23
2019-03-24T10:45:31.372Z,5.67
2019-03-24T10:48:02.408Z,5.37
2019-03-24T10:50:33.565Z,5.50
2019-03-24T10:53:04.414Z,8.93
2019-03-24T10:55:35.455Z,7.40
2019-03-24T10:58:06.418Z,5.33
2019-03-24T11:00:39.257Z,6.37
2019-03-24T11:03:10.160Z,9.10
2019-03-24T11:05:41.238Z,7.27
2019-03-24T11:08:11.911Z,5.60
2019-03-24T11:10:42.884Z,11.10
2019-03-24T11:13:13.478Z,5.27
2019-03-24T11:15:44.448Z,10.37
2019-03-24T11:18:15.767Z,8.07
2019-03-24T11:20:46.408Z,12.83
2019-03-24T11:23:17.331Z,6.73
2019-03-24T11:25:48.035Z,8.33
2019-03-24T11:28:19.408Z,2.93
2019-03-24T11:30:50.544Z,6.87
2019-03-24T11:33:21.812Z,5.77
2019-03-24T11:35:52.839Z,9.03
2019-03-24T11:38:23.805Z,6.47
2019-03-24T11:40:54.986Z,3.33
2019-03-24T11:43:25.681Z,6.53
2019-03-24T11:45:56.581Z,10.93
2019-03-24T11:48:27.680Z,7.53
2019-03-24T11:50:58.521Z,6.80
2019-03-24T11:53:29.568Z,6.30
2019-03-24T11:56:00.715Z,3.33
2019-03-24T11:58:31.462Z,4.07
2019-03-24T12:01:02.483Z,4.17
2019-03-24T12:03:33.129Z,8.33
2019-03-24T12:06:13.999Z,3.00
2019-03-24T12:08:38.755Z,7.93
2019-03-24T12:11:09.493Z,6.80
2019-03-24T12:13:40.343Z,3.90
2019-03-24T12:16:11.230Z,2.43
2019-03-24T12:18:42.283Z,5.27
2019-03-24T12:21:13.312Z,9.30
2019-03-24T12:23:44.401Z,5.57
2019-03-24T12:26:15.711Z,2.07
2019-03-24T12:28:46.508Z,6.20
2019-03-24T12:31:17.254Z,4.63
2019-03-24T12:33:47.988Z,2.17
2019-03-24T12:36:18.999Z,5.00
2019-03-24T12:38:50.186Z,7.40
2019-03-24T12:41:20.905Z,3.90
2019-03-24T12:43:51.808Z,9.13
2019-03-24T12:46:22.728Z,4.60
2019-03-24T12:48:53.669Z,8.53
2019-03-24T12:51:24.900Z,7.60
2019-03-24T12:53:55.546Z,4.03
2019-03-24T12:56:26.220Z,3.67
2019-03-24T12:58:56.886Z,4.87
2019-03-24T13:01:28.087Z,4.53
2019-03-24T13:03:59.793Z,2.47
2019-03-24T13:06:31.220Z,2.13
2019-03-24T13:09:02.140Z,4.57
2019-03-24T13:11:33.440Z,4.30
2019-03-24T13:14:04.313Z,3.93
2019-03-24T13:16:35.399Z,6.17
2019-03-24T13:19:06.459Z,5.43
2019-03-24T13:21:37.549Z,5.37
2019-03-24T13:24:08.336Z,4.50
2019-03-24T13:26:39.286Z,5.43
2019-03-24T13:29:09.914Z,3.70
2019-03-24T13:31:40.676Z,3.43
2019-03-24T13:34:11.549Z,4.10
2019-03-24T13:36:42.275Z,10.30
2019-03-24T13:39:13.077Z,8.60
2019-03-24T13:41:44.056Z,5.50
2019-03-24T13:44:15.334Z,8.43
2019-03-24T13:46:46.467Z,7.30
2019-03-24T13:49:18.272Z,3.60
2019-03-24T13:51:49.724Z,4.87
2019-03-24T13:54:21.299Z,8.30
2019-03-24T13:56:52.110Z,5.50
2019-03-24T13:59:24.637Z,5.03
2019-03-24T14:01:55.825Z,6.20
2019-03-24T14:04:27.105Z,8.70
2019-03-24T14:06:57.797Z,8.13
2019-03-24T14:09:28.770Z,5.40
2019-03-24T14:11:59.452Z,9.83
2019-03-24T14:14:31.096Z,6.53
2019-03-24T14:17:02.056Z,4.83
2019-03-24T14:19:33.192Z,4.27
2019-03-24T14:22:03.819Z,6.00
2019-03-24T14:24:34.993Z,6.83
2019-03-24T14:27:05.948Z,7.93
2019-03-24T14:29:37.343Z,2.73
2019-03-24T14:32:08.225Z,2.77
2019-03-24T14:34:39.082Z,3.93
2019-03-24T14:37:11.832Z,4.87
2019-03-24T14:39:42.912Z,3.42
2019-03-24T14:42:13.703Z,5.85
2019-03-24T14:44:44.628Z,3.60
2019-03-24T14:47:16.419Z,13.70
2019-03-24T14:49:47.365Z,3.83
2019-03-24T14:52:18.267Z,3.83
2019-03-24T14:54:49.352Z,16.87
2019-03-24T14:57:20.388Z,4.55
2019-03-24T14:59:51.691Z,3.70
2019-03-24T15:02:22.573Z,1.43
2019-03-24T15:04:53.524Z,3.37
2019-03-24T15:07:24.316Z,4.57
2019-03-24T15:09:55.460Z,3.55
2019-03-24T15:12:26.120Z,3.83
2019-03-24T15:14:57.449Z,1.30
2019-03-24T15:17:28.824Z,4.50
2019-03-24T15:20:00.052Z,2.37
2019-03-24T15:22:31.435Z,2.80
2019-03-24T15:25:03.901Z,6.13
2019-03-24T15:27:35.129Z,3.10
2019-03-24T15:30:06.330Z,3.03
2019-03-24T15:32:38.484Z,3.87
2019-03-24T15:35:09.621Z,3.40
2019-03-24T15:37:40.840Z,3.83
2019-03-24T15:40:11.924Z,3.53
2019-03-24T15:42:43.400Z,4.60
2019-03-24T15:45:14.489Z,3.37
2019-03-24T15:47:45.580Z,3.93
2019-03-24T15:50:16.829Z,4.70
2019-03-24T15:52:47.968Z,2.60
2019-03-24T15:55:18.827Z,4.30
2019-03-24T15:57:50.008Z,4.60
2019-03-24T16:00:40.240Z,6.07
2019-03-24T16:03:11.202Z,1.27
2019-03-24T16:05:42.527Z,8.17
2019-03-24T16:08:13.556Z,4.57
2019-03-24T16:10:44.892Z,8.43
2019-03-24T16:13:16.484Z,5.20
2019-03-24T16:15:48.306Z,2.97
2019-03-24T16:18:19.501Z,5.23
2019-03-24T16:20:50.597Z,3.83
2019-03-24T16:23:21.230Z,6.67
2019-03-24T16:25:52.177Z,5.20
2019-03-24T16:28:23.040Z,6.70
2019-03-24T16:30:53.971Z,5.10
2019-03-24T16:33:26.032Z,5.73
2019-03-24T16:35:56.631Z,7.93
2019-03-24T16:38:27.617Z,10.13
2019-03-24T16:40:58.213Z,2.83
2019-03-24T16:43:29.072Z,3.83
2019-03-24T16:45:59.680Z,2.87
2019-03-24T16:48:36.708Z,1.70
2019-03-24T16:51:03.574Z,2.53
2019-03-24T16:53:34.565Z,5.87
2019-03-24T16:56:05.265Z,13.30
2019-03-24T16:58:36.555Z,2.63
2019-03-24T17:01:08.246Z,4.50
2019-03-24T17:03:39.076Z,3.30
2019-03-24T17:06:10.399Z,3.60
2019-03-24T17:08:41.396Z,5.13
2019-03-24T17:11:12.526Z,3.70
2019-03-24T17:13:43.130Z,6.10
2019-03-24T17:16:15.600Z,5.27
2019-03-24T17:18:46.462Z,2.30
2019-03-24T17:21:17.479Z,7.40
2019-03-24T17:23:48.336Z,2.90
2019-03-24T17:26:19.104Z,1.43
2019-03-24T17:28:49.910Z,3.90
2019-03-24T17:31:21.980Z,5.23
2019-03-24T17:33:53.185Z,7.33
2019-03-24T17:36:24.087Z,2.90
2019-03-24T17:38:55.180Z,12.13
2019-03-24T17:41:27.355Z,4.17
2019-03-24T17:44:03.205Z,3.10
2019-03-24T17:46:30.972Z,3.33
2019-03-24T17:49:01.602Z,11.87
2019-03-24T17:51:32.516Z,3.43
2019-03-24T17:54:03.816Z,7.70
2019-03-24T17:56:35.075Z,2.27
2019-03-24T17:59:05.956Z,2.17
2019-03-24T18:01:36.985Z,5.60
2019-03-24T18:04:07.899Z,6.23
2019-03-24T18:06:39.661Z,5.53
2019-03-24T18:09:10.678Z,3.70
2019-03-24T18:11:41.948Z,3.10
2019-03-24T18:14:14.977Z,7.03
2019-03-24T18:16:45.949Z,6.27
2019-03-24T18:19:17.683Z,4.70
2019-03-24T18:21:48.403Z,3.10
2019-03-24T18:24:19.719Z,4.33
2019-03-24T18:26:50.358Z,5.30
2019-03-24T18:29:20.944Z,11.73
2019-03-24T18:31:52.477Z,9.03
2019-03-24T18:34:23.143Z,7.27
2019-03-24T18:36:54.348Z,10.00
2019-03-24T18:39:25.317Z,25.23
2019-03-24T18:41:56.701Z,31.70
2019-03-24T18:44:27.640Z,29.53
2019-03-24T18:46:59.076Z,34.92
2019-03-24T18:49:30.435Z,18.77
2019-03-24T18:52:01.391Z,11.13
2019-03-24T18:54:33.456Z,11.47
2019-03-24T18:57:04.154Z,10.60
2019-03-24T18:59:35.263Z,9.23
2019-03-24T19:02:06.520Z,8.30
2019-03-24T19:04:37.364Z,5.97
2019-03-24T19:07:08.183Z,5.17
2019-03-24T19:09:39.526Z,5.17
2019-03-24T19:12:10.880Z,8.03
2019-03-24T19:14:42.512Z,6.83
2019-03-24T19:17:13.449Z,11.97
2019-03-24T19:19:44.347Z,11.03
2019-03-24T19:22:15.304Z,10.90
2019-03-24T19:24:46.854Z,12.00
2019-03-24T19:27:17.952Z,7.97
2019-03-24T19:29:48.671Z,10.03
2019-03-24T19:32:19.728Z,11.17
2019-03-24T19:34:50.661Z,15.73
2019-03-24T19:37:23.072Z,9.07
2019-03-24T19:39:54.084Z,8.25
2019-03-24T19:42:24.776Z,13.27
2019-03-24T19:44:55.955Z,4.30
2019-03-24T19:47:26.892Z,8.53
2019-03-24T19:49:57.843Z,6.73
2019-03-24T19:52:28.695Z,9.20
2019-03-24T19:54:59.360Z,4.63
2019-03-24T19:57:29.988Z,5.53
2019-03-24T20:00:01.189Z,6.30
2019-03-24T20:02:32.472Z,5.67
2019-03-24T20:05:03.640Z,4.17
2019-03-24T20:07:34.308Z,4.90
2019-03-24T20:10:05.290Z,4.03
2019-03-24T20:12:36.480Z,4.70
2019-03-24T20:15:07.816Z,1.80
2019-03-24T20:17:38.732Z,3.97
2019-03-24T20:20:09.710Z,3.30
2019-03-24T20:22:40.534Z,4.30
2019-03-24T20:25:11.445Z,1.73
2019-03-24T20:27:42.094Z,4.73
2019-03-24T20:30:14.572Z,3.17
2019-03-24T20:32:45.207Z,1.67
2019-03-24T20:35:16.055Z,6.50
2019-03-24T20:37:46.817Z,6.00
2019-03-24T20:40:18.853Z,7.83
2019-03-24T20:42:51.011Z,4.00
2019-03-24T20:45:21.896Z,6.43
2019-03-24T20:47:52.784Z,9.00
2019-03-24T20:50:24.933Z,10.77
2019-03-24T20:53:05.444Z,4.83
2019-03-24T20:55:28.226Z,5.60
2019-03-24T20:58:00.036Z,3.17
2019-03-24T21:00:33.474Z,8.73
2019-03-24T21:03:04.922Z,5.90
2019-03-24T21:05:37.475Z,7.67
2019-03-24T21:08:08.343Z,7.70
2019-03-24T21:10:39.833Z,8.20
2019-03-24T21:13:10.519Z,4.53
2019-03-24T21:15:41.588Z,3.80
2019-03-24T21:18:12.208Z,5.03
2019-03-24T21:20:43.001Z,3.37
2019-03-24T21:23:14.924Z,3.57
2019-03-24T21:25:45.753Z,6.57
2019-03-24T21:28:16.836Z,6.25
2019-03-24T21:30:47.747Z,6.80
2019-03-24T21:33:18.834Z,3.63
2019-03-24T21:35:50.099Z,9.63
2019-03-24T21:38:21.205Z,4.92
2019-03-24T21:40:52.062Z,4.30
2019-03-24T21:43:22.766Z,5.07
2019-03-24T21:45:53.577Z,2.50
2019-03-24T21:48:24.655Z,2.40
2019-03-24T21:50:55.528Z,4.83
2019-03-24T21:53:26.414Z,4.85
2019-03-24T21:55:57.259Z,2.17
2019-03-24T21:58:28.805Z,1.92
2019-03-24T22:00:59.655Z,3.63
2019-03-24T22:03:30.328Z,6.43
2019-03-24T22:06:00.948Z,6.47
2019-03-24T22:08:31.775Z,3.65
2019-03-24T22:11:02.644Z,3.30
2019-03-24T22:13:33.460Z,9.15
2019-03-24T22:16:04.557Z,5.80
2019-03-24T22:18:35.388Z,3.27
2019-03-24T22:21:06.332Z,4.70
2019-03-24T22:23:37.236Z,2.57
2019-03-24T22:26:08.132Z,3.33
2019-03-24T22:28:38.941Z,2.47
2019-03-24T22:31:09.940Z,4.25
2019-03-24T22:33:40.515Z,6.10
2019-03-24T22:36:11.601Z,5.42
2019-03-24T22:38:42.175Z,3.10
2019-03-24T22:41:13.026Z,8.20
2019-03-24T22:43:43.856Z,7.87
2019-03-24T22:46:14.478Z,3.22
2019-03-24T22:48:45.105Z,2.70
2019-03-24T22:51:15.723Z,2.92
2019-03-24T22:53:46.568Z,10.35
2019-03-24T22:56:17.187Z,5.83
2019-03-24T22:58:48.017Z,3.17
2019-03-24T23:01:19.252Z,8.45
2019-03-24T23:03:50.533Z,3.67
2019-03-24T23:06:21.424Z,6.55
2019-03-24T23:08:52.045Z,3.60
2019-03-24T23:11:22.845Z,3.30
2019-03-24T23:13:53.948Z,5.12
2019-03-24T23:16:24.741Z,4.50
2019-03-24T23:18:55.668Z,6.45
2019-03-24T23:21:26.512Z,10.80
2019-03-24T23:23:57.549Z,5.87
2019-03-24T23:26:29.441Z,3.75
2019-03-24T23:29:00.065Z,3.77
2019-03-24T23:31:30.872Z,6.93
2019-03-24T23:34:01.705Z,4.90
2019-03-24T23:36:33.028Z,5.78
2019-03-24T23:39:05.029Z,4.35
2019-03-24T23:41:35.601Z,13.37
2019-03-24T23:44:06.549Z,4.90
2019-03-24T23:46:37.341Z,4.97
2019-03-24T23:49:07.937Z,8.33
2019-03-24T23:51:38.604Z,38.83
2019-03-24T23:54:09.643Z,3.60
2019-03-24T23:56:40.260Z,7.62
2019-03-24T23:59:11.080Z,4.27
